Home   Weather   Germany   Erding   Past weeks
Flag for Germany

Past Weather in Erding, Bavaria, Germany — Yesterday and Last 2 Weeks

Currently: 82 °F. Passing clouds. (Weather station: Munich / Franz Josef Strauss Airport, Germany). See more current weather

Past Weather in Erding — Graph

°F

Erding Temperature Yesterday

Maximum temperature yesterday: 81 °F (at 3:50 pm)
Minimum temperature yesterday: 55 °F (at 5:20 am)
Average temperature yesterday: 70 °F

High & Low Weather Summary for the Past Weeks

 TemperatureHumidityPressure
High88 °F (Jul 6, 3:20 pm)100% (Jul 6, 12:50 am)30.24 "Hg (Jul 6, 12:50 am)
Low52 °F (Jul 6, 3:50 am)33% (Jul 6, 3:50 pm)29.68 "Hg (Jul 6, 3:50 pm)
Average68 °F76%30.01 "Hg
* Reported Jul 4 1:20 pm — Jul 19 1:20 pm, Erding. Weather by CustomWeather, © 2024

Note: Actual official high and low records may vary slightly from our data, if they occured in-between our weather recording intervals... More about our weather records

Erding Weather History for the Previous 24 Hours

Scroll right to see more
 ConditionsComfort  
Time TempWeatherWind HumidityBarometerVisibility
1:20 pm
Fri, Jul 19
81 °FPassing clouds.3 mph54%30.09 "HgN/A
12:50 pm81 °FPassing clouds.3 mph58%30.09 "HgN/A
12:20 pm81 °FPassing clouds.6 mph54%30.12 "HgN/A
11:50 am81 °FSunny.3 mph54%30.12 "Hg10 mi
11:20 am79 °FSunny.2 mph61%30.12 "Hg10 mi
10:50 am77 °FPassing clouds.5 mph61%30.12 "HgN/A
10:20 am77 °FPassing clouds.5 mph57%30.12 "HgN/A
9:50 am75 °FPassing clouds.3 mph65%30.12 "HgN/A
9:20 am73 °FPassing clouds.3 mph69%30.15 "HgN/A
8:50 am72 °FSunny.2 mph73%30.15 "Hg10 mi
8:20 am72 °FPassing clouds.2 mph73%30.15 "HgN/A
7:20 am66 °FScattered clouds.1 mph88%30.15 "HgN/A
6:50 am61 °FPassing clouds.1 mph94%30.15 "HgN/A
6:20 am59 °FSunny.1 mph94%30.15 "Hg10 mi
5:50 am59 °FPassing clouds.1 mph100%30.15 "HgN/A
5:20 am57 °FClear.1 mph100%30.15 "Hg10 mi
4:50 am59 °FPassing clouds.1 mph94%30.15 "HgN/A
4:20 am59 °FPassing clouds.1 mph100%30.15 "HgN/A
2:50 am61 °FClear.No wind94%30.15 "Hg10 mi
2:20 am61 °FPassing clouds.1 mph94%30.15 "HgN/A
1:50 am61 °FClear.2 mph100%30.15 "Hg10 mi
1:20 am61 °FClear.1 mph100%30.15 "Hg10 mi
12:50 am63 °FClear.1 mph94%30.15 "Hg10 mi
12:20 am63 °FClear.2 mph94%30.15 "Hg10 mi
11:50 pm
Thu, Jul 18
64 °FClear.2 mph88%30.15 "Hg10 mi
11:20 pm68 °FClear.3 mph78%30.15 "Hg10 mi
10:50 pm66 °FClear.2 mph88%30.15 "Hg10 mi
10:20 pm66 °FPassing clouds.No wind94%30.15 "HgN/A
9:50 pm68 °FPassing clouds.1 mph88%30.15 "HgN/A
9:20 pm70 °FPassing clouds.2 mph83%30.15 "HgN/A
8:50 pm75 °FPassing clouds.2 mph65%30.15 "HgN/A
8:20 pm77 °FSunny.3 mph61%30.15 "Hg10 mi
7:50 pm79 °FSunny.3 mph58%30.15 "Hg10 mi
7:20 pm81 °FPassing clouds.3 mph51%30.15 "HgN/A
6:50 pm81 °FPassing clouds.6 mph54%30.15 "HgN/A
6:20 pm81 °FPassing clouds.6 mph51%30.15 "HgN/A
5:50 pm81 °FPassing clouds.6 mph51%30.15 "HgN/A
5:20 pm79 °FScattered clouds.5 mph54%30.15 "HgN/A
4:50 pm81 °FScattered clouds.6 mph48%30.15 "HgN/A
4:20 pm81 °FPassing clouds.7 mph48%30.15 "HgN/A
3:50 pm81 °FScattered clouds.7 mph54%30.15 "HgN/A
3:20 pm79 °FScattered clouds.7 mph54%30.15 "HgN/A
2:50 pm77 °FScattered clouds.9 mph57%30.18 "HgN/A
2:20 pm79 °FScattered clouds.10 mph58%30.18 "HgN/A
Weather by CustomWeather, © 2024

See weather overview